Time;durP1;ratioP1;P1;durP2;ratioP2;P2;SDS_P1;SDS_P2;PMS_P1;PMS_P2;Temp;Humidity;BMP_temperature;BMP_pressure;BME280_temperature;BME280_humidity;BME280_pressure;Samples;Min_cycle;Max_cycle;Signal;HPM_P1;HPM_P2
2022/06/23 00:02:28;;;;;;;16.80;6.57;;;22.40;99.90;;;;;;5071706;28;20545;-73
2022/06/23 00:05:07;;;;;;;12.82;5.90;;;22.40;99.90;;;;;;5071711;28;20024;-70
2022/06/23 00:07:36;;;;;;;11.43;6.00;;;22.30;99.90;;;;;;5071552;28;20028;-74
2022/06/23 00:10:22;;;;;;;8.50;5.22;;;22.10;99.90;;;;;;5071665;28;20021;-71
2022/06/23 00:12:48;;;;;;;8.48;5.47;;;22.00;99.90;;;;;;5071433;28;20028;-71
2022/06/23 00:15:23;;;;;;;9.60;4.93;;;21.90;99.90;;;;;;5075190;28;20043;-74
2022/06/23 00:18:02;;;;;;;11.20;5.07;;;22.00;99.90;;;;;;5074691;28;20477;-73
2022/06/23 00:20:52;;;;;;;12.10;6.30;;;22.00;99.90;;;;;;5075206;28;20035;-73
2022/06/23 00:23:27;;;;;;;10.68;6.10;;;22.00;99.90;;;;;;5075128;28;20024;-74
2022/06/23 00:26:22;;;;;;;13.52;5.90;;;21.90;99.90;;;;;;5075144;28;20033;-73
2022/06/23 00:28:53;;;;;;;11.95;5.10;;;21.80;99.90;;;;;;5073859;28;20441;-73
2022/06/23 00:31:33;;;;;;;13.93;6.28;;;21.70;99.90;;;;;;5074496;28;20023;-73
2022/06/23 00:34:02;;;;;;;12.73;6.53;;;21.70;99.90;;;;;;5074497;28;20036;-73
2022/06/23 00:36:37;;;;;;;16.50;7.18;;;21.70;99.90;;;;;;5074467;28;20021;-73
2022/06/23 00:39:18;;;;;;;13.93;7.53;;;21.60;99.90;;;;;;5074062;28;20037;-74
2022/06/23 00:41:44;;;;;;;12.48;6.38;;;21.50;99.90;;;;;;5074771;28;20029;-73
2022/06/23 00:44:30;;;;;;;13.50;6.22;;;21.40;99.90;;;;;;5073608;28;20025;-72
2022/06/23 00:47:00;;;;;;;12.23;6.70;;;21.50;99.90;;;;;;5071865;28;20063;-72
2022/06/23 00:49:32;;;;;;;11.95;6.22;;;21.50;99.90;;;;;;5070178;28;20078;-72
2022/06/23 00:52:28;;;;;;;12.32;8.32;;;21.60;99.90;;;;;;5073142;28;20036;-70
2022/06/23 00:54:59;;;;;;;19.50;9.15;;;21.60;99.90;;;;;;5073299;28;20440;-72
2022/06/23 00:57:38;;;;;;;13.75;7.75;;;21.70;99.90;;;;;;5088059;28;20445;-72
2022/06/23 01:00:09;;;;;;;17.23;7.93;;;21.70;99.90;;;;;;5082271;28;20024;-73
2022/06/23 01:02:46;;;;;;;13.97;8.03;;;21.70;99.90;;;;;;5077230;28;20034;-69
2022/06/23 01:05:38;;;;;;;22.02;8.25;;;21.60;99.90;;;;;;5066916;28;20276;-73
2022/06/23 01:08:19;;;;;;;18.97;8.80;;;21.50;99.90;;;;;;5072786;28;20029;-72
2022/06/23 01:11:02;;;;;;;14.55;8.95;;;21.40;99.90;;;;;;5075416;28;20086;-73
2022/06/23 01:13:46;;;;;;;19.85;9.13;;;21.20;99.90;;;;;;5082897;28;20091;-74
2022/06/23 01:16:26;;;;;;;18.05;9.30;;;21.10;99.90;;;;;;5070826;28;20119;-74
2022/06/23 01:19:04;;;;;;;21.10;9.52;;;20.90;99.90;;;;;;5071759;28;20089;-65
2022/06/23 01:21:44;;;;;;;15.65;8.95;;;20.70;99.90;;;;;;5069674;28;20074;-71
2022/06/23 01:24:31;;;;;;;18.27;10.57;;;20.90;99.90;;;;;;5061143;28;20025;-73
2022/06/23 01:27:10;;;;;;;28.55;12.15;;;20.30;99.90;;;;;;5071295;28;20077;-72
2022/06/23 01:29:59;;;;;;;19.30;11.35;;;19.70;99.90;;;;;;5070337;28;20023;-77
2022/06/23 01:32:35;;;;;;;16.08;9.52;;;19.30;99.90;;;;;;5073238;28;20115;-76
2022/06/23 01:35:27;;;;;;;14.70;7.10;;;19.10;99.90;;;;;;5073038;28;20024;-76
2022/06/23 01:38:00;;;;;;;15.02;8.52;;;19.10;99.90;;;;;;5064538;28;20029;-75
2022/06/23 01:40:45;;;;;;;20.63;8.88;;;19.00;99.90;;;;;;5074954;28;20036;-75
2022/06/23 01:43:28;;;;;;;15.57;8.38;;;18.80;99.90;;;;;;5071523;28;20020;-74
2022/06/23 01:46:06;;;;;;;13.93;7.40;;;18.60;99.90;;;;;;5071792;28;20028;-75
2022/06/23 01:48:52;;;;;;;14.65;7.65;;;18.70;99.90;;;;;;5074434;28;20025;-76
2022/06/23 01:51:49;;;;;;;15.23;8.75;;;18.70;99.90;;;;;;5072451;28;20076;-75
2022/06/23 01:54:26;;;;;;;16.13;8.00;;;18.70;99.90;;;;;;5029598;28;20048;-75
2022/06/23 01:57:04;;;;;;;14.40;9.13;;;18.80;99.90;;;;;;5029794;28;20488;-74
2022/06/23 01:59:54;;;;;;;11.57;7.55;;;18.80;99.90;;;;;;5037469;28;20056;-75
2022/06/23 02:02:51;;;;;;;13.55;7.90;;;18.80;99.90;;;;;;5017437;28;20033;-74
2022/06/23 02:05:28;;;;;;;9.65;5.82;;;18.80;99.90;;;;;;5031183;28;20136;-72
2022/06/23 02:08:21;;;;;;;15.63;6.90;;;18.90;99.90;;;;;;5028450;28;20112;-75
2022/06/23 02:11:01;;;;;;;12.07;6.75;;;18.90;99.90;;;;;;5028801;28;20065;-72
2022/06/23 02:13:36;;;;;;;11.15;5.93;;;19.00;99.90;;;;;;5028421;28;20033;-73
2022/06/23 02:16:10;;;;;;;12.02;5.30;;;19.10;99.90;;;;;;5029773;28;20112;-73
2022/06/23 02:18:57;;;;;;;13.55;4.78;;;19.20;99.90;;;;;;5028686;28;20076;-75
2022/06/23 02:21:31;;;;;;;10.13;5.20;;;19.20;99.90;;;;;;5029147;28;20042;-73
2022/06/23 02:24:05;;;;;;;10.77;5.70;;;19.20;99.90;;;;;;5028451;28;20041;-72
2022/06/23 02:26:37;;;;;;;14.90;6.50;;;19.20;99.90;;;;;;5028795;28;20431;-74
2022/06/23 02:29:16;;;;;;;;;;;19.20;99.90;;;;;;5028490;28;20029;-73
2022/06/23 02:32:03;;;;;;;16.73;8.00;;;19.20;99.90;;;;;;5058723;28;20011;-73
2022/06/23 02:35:01;;;;;;;13.73;7.85;;;19.20;99.90;;;;;;5070815;28;20095;-73
2022/06/23 02:37:52;;;;;;;17.80;9.38;;;19.20;99.90;;;;;;5067074;28;20567;-73
2022/06/23 02:40:38;;;;;;;15.48;9.57;;;19.20;99.90;;;;;;5070530;28;20413;-73
2022/06/23 02:43:15;;;;;;;17.17;9.82;;;19.30;99.90;;;;;;5070622;28;20062;-73
2022/06/23 02:46:17;;;;;;;17.83;10.55;;;19.40;99.90;;;;;;5070834;28;20028;-72
2022/06/23 02:49:07;;;;;;;21.08;11.68;;;19.50;99.90;;;;;;5070477;28;20028;-73
2022/06/23 02:51:43;;;;;;;18.95;11.65;;;19.50;99.90;;;;;;5070517;28;20128;-73
2022/06/23 02:54:12;;;;;;;22.45;11.40;;;19.50;99.90;;;;;;5070418;28;20047;-73
2022/06/23 02:56:41;;;;;;;17.27;10.13;;;19.50;99.90;;;;;;5070816;28;20124;-73
2022/06/23 02:59:13;;;;;;;16.42;8.85;;;19.50;99.90;;;;;;5066358;28;20046;-74
2022/06/23 03:01:42;;;;;;;15.00;10.27;;;19.40;99.90;;;;;;5070258;28;20059;-74
2022/06/23 03:04:34;;;;;;;16.48;9.48;;;19.30;99.90;;;;;;5070476;28;20095;-74
2022/06/23 03:07:13;;;;;;;16.70;9.80;;;19.30;99.90;;;;;;5067614;28;20028;-73
2022/06/23 03:09:44;;;;;;;13.52;8.50;;;19.40;99.90;;;;;;5070448;28;20464;-73
2022/06/23 03:12:27;;;;;;;14.82;9.23;;;19.40;99.90;;;;;;5070461;28;20108;-73
2022/06/23 03:15:01;;;;;;;14.82;9.32;;;19.40;99.90;;;;;;5070228;28;20107;-74
2022/06/23 03:17:39;;;;;;;14.50;8.93;;;19.40;99.90;;;;;;5071014;28;20090;-72
2022/06/23 03:20:09;;;;;;;15.20;10.13;;;19.50;99.90;;;;;;5070405;28;20028;-73
2022/06/23 03:22:41;;;;;;;14.13;8.90;;;19.50;99.90;;;;;;5070370;28;20506;-73
2022/06/23 03:25:15;;;;;;;16.80;10.40;;;19.50;99.90;;;;;;5070286;28;20108;-74
2022/06/23 03:28:04;;;;;;;15.40;10.05;;;19.50;99.90;;;;;;5070030;28;20104;-72
2022/06/23 03:30:52;;;;;;;15.63;8.68;;;19.60;99.90;;;;;;5069136;28;20509;-75
2022/06/23 03:33:18;;;;;;;16.30;9.68;;;19.60;99.90;;;;;;5066767;28;20029;-73
2022/06/23 03:36:11;;;;;;;17.15;9.30;;;19.70;99.90;;;;;;5069870;28;20008;-74
2022/06/23 03:42:06;;;;;;;16.67;9.75;;;19.70;99.90;;;;;;5069871;28;20028;-74
2022/06/23 03:44:50;;;;;;;17.33;10.32;;;19.70;99.90;;;;;;5069809;28;20028;-74
2022/06/23 03:47:35;;;;;;;17.15;11.13;;;19.80;99.90;;;;;;5066919;28;20159;-73
2022/06/23 03:50:15;;;;;;;16.02;10.88;;;19.80;99.90;;;;;;5073273;28;20363;-74
2022/06/23 03:52:47;;;;;;;20.90;12.05;;;19.90;99.90;;;;;;5073727;28;20063;-73
2022/06/23 03:55:22;;;;;;;18.55;12.10;;;19.90;99.90;;;;;;5073926;28;20047;-73
2022/06/23 03:57:55;;;;;;;20.98;14.35;;;20.00;99.90;;;;;;5073887;28;20098;-74
2022/06/23 04:00:27;;;;;;;19.10;12.35;;;19.90;99.90;;;;;;5072654;28;20032;-74
2022/06/23 04:03:09;;;;;;;19.95;13.10;;;19.80;99.90;;;;;;5073599;28;20468;-73
2022/06/23 04:05:58;;;;;;;;;;;20.00;99.90;;;;;;5074250;28;20028;-73
2022/06/23 04:08:30;;;;;;;21.85;12.73;;;20.00;99.90;;;;;;5050792;28;19956;-73
2022/06/23 04:11:43;;;;;;;17.90;11.35;;;20.10;99.90;;;;;;5046770;28;20036;-73
2022/06/23 04:13:45;;;;;;;17.17;11.90;;;20.20;99.90;;;;;;5055364;28;20430;-75
2022/06/23 04:16:12;;;;;;;19.13;12.73;;;20.20;99.90;;;;;;5056815;28;20032;-74
2022/06/23 04:18:45;;;;;;;19.55;11.90;;;20.20;99.90;;;;;;5049186;28;20090;-71
2022/06/23 04:21:23;;;;;;;16.35;11.80;;;20.30;99.90;;;;;;5049819;28;20104;-72
2022/06/23 04:24:06;;;;;;;17.13;11.25;;;20.30;99.90;;;;;;5048666;28;20025;-73
2022/06/23 04:26:35;;;;;;;22.33;12.52;;;20.40;99.90;;;;;;5046403;28;20041;-73
2022/06/23 04:29:18;;;;;;;17.45;11.68;;;20.40;99.90;;;;;;5050074;28;20111;-73
2022/06/23 04:31:55;;;;;;;21.73;13.35;;;20.50;99.90;;;;;;5047322;28;20407;-71
2022/06/23 04:34:31;;;;;;;19.65;13.15;;;20.60;99.90;;;;;;5050262;28;20029;-70
2022/06/23 04:36:57;;;;;;;19.65;13.20;;;20.60;99.90;;;;;;5053248;28;20519;-73
2022/06/23 04:39:40;;;;;;;23.33;13.05;;;20.60;99.90;;;;;;5048609;28;20045;-75
2022/06/23 04:42:23;;;;;;;22.83;13.13;;;20.70;99.90;;;;;;5049085;28;20029;-72
2022/06/23 04:44:52;;;;;;;22.00;14.13;;;20.60;99.90;;;;;;5051814;28;20032;-74
2022/06/23 04:47:20;;;;;;;18.13;13.40;;;20.70;99.90;;;;;;5073245;28;20029;-74
2022/06/23 04:49:53;;;;;;;23.05;13.90;;;20.70;99.90;;;;;;5073006;28;20119;-74
2022/06/23 04:52:46;;;;;;;18.13;13.35;;;20.70;99.90;;;;;;5069036;28;20103;-70
2022/06/23 04:55:38;;;;;;;25.45;13.85;;;20.70;99.90;;;;;;5071273;28;20047;-74
2022/06/23 04:58:17;;;;;;;;;;;20.50;99.90;;;;;;5069561;28;20037;-74
2022/06/23 05:00:46;;;;;;;18.15;11.75;;;20.60;99.90;;;;;;5071549;28;20285;-72
2022/06/23 05:03:44;;;;;;;16.70;12.55;;;20.40;99.90;;;;;;5072961;28;20028;-74
2022/06/23 05:06:46;;;;;;;17.00;12.40;;;20.40;99.90;;;;;;5072786;28;20036;-75
2022/06/23 05:09:17;;;;;;;21.98;12.93;;;20.40;99.90;;;;;;5050350;28;20057;-75
2022/06/23 05:11:46;;;;;;;18.45;13.18;;;20.50;99.90;;;;;;5050265;28;20041;-74
2022/06/23 05:14:20;;;;;;;19.10;13.32;;;20.50;99.90;;;;;;5052090;28;20029;-74
2022/06/23 05:16:51;;;;;;;19.45;13.07;;;20.50;99.90;;;;;;5047844;28;20641;-75
2022/06/23 05:19:30;;;;;;;20.35;13.57;;;20.60;99.90;;;;;;5049980;28;20175;-75
2022/06/23 05:22:08;;;;;;;18.20;13.48;;;20.60;99.90;;;;;;5047629;28;20439;-75
2022/06/23 05:24:39;;;;;;;26.33;12.38;;;20.70;99.90;;;;;;5049703;28;20048;-75
2022/06/23 05:27:28;;;;;;;19.35;12.80;;;20.80;99.90;;;;;;5049859;28;20021;-75
2022/06/23 05:30:31;;;;;;;19.92;13.80;;;20.80;99.90;;;;;;5049240;28;20044;-75
2022/06/23 05:33:06;;;;;;;20.05;12.73;;;20.90;99.90;;;;;;5030994;28;20041;-74
2022/06/23 05:35:31;;;;;;;20.08;13.63;;;21.00;99.90;;;;;;5051529;28;20519;-75
2022/06/23 05:38:18;;;;;;;17.95;12.32;;;21.10;99.90;;;;;;5051323;28;20059;-74
2022/06/23 05:40:52;;;;;;;19.38;13.63;;;21.20;99.90;;;;;;5051375;28;20025;-75
2022/06/23 05:43:18;;;;;;;18.17;12.48;;;21.00;99.90;;;;;;5051013;28;20029;-76
2022/06/23 05:45:48;;;;;;;19.25;13.40;;;21.10;99.90;;;;;;5071138;28;20029;-73
2022/06/23 05:48:43;;;;;;;20.30;14.07;;;21.20;99.90;;;;;;5073354;28;20086;-71
2022/06/23 05:51:27;;;;;;;19.80;12.98;;;21.30;99.90;;;;;;5072668;28;20049;-76
2022/06/23 05:53:58;;;;;;;21.92;13.48;;;21.40;99.90;;;;;;5073129;28;20036;-75
2022/06/23 05:56:27;;;;;;;22.25;13.75;;;21.30;99.90;;;;;;5073451;28;20463;-76
2022/06/23 05:59:00;;;;;;;20.38;13.68;;;21.50;99.90;;;;;;5072975;28;20120;-76
2022/06/23 06:01:33;;;;;;;20.00;12.52;;;21.80;99.90;;;;;;5073120;28;20025;-76
2022/06/23 06:04:11;;;;;;;19.27;13.40;;;22.10;99.90;;;;;;5072977;28;20028;-76
2022/06/23 06:06:38;;;;;;;14.98;11.55;;;22.20;99.90;;;;;;5059003;28;20447;-76
2022/06/23 06:11:55;;;;;;;19.80;11.70;;;22.00;99.90;;;;;;5072782;28;20029;-76
2022/06/23 06:14:26;;;;;;;22.52;14.88;;;21.80;99.90;;;;;;5072842;28;20072;-76
2022/06/23 06:16:55;;;;;;;19.73;13.65;;;21.60;99.90;;;;;;5072704;28;20024;-76
2022/06/23 06:19:25;;;;;;;19.95;11.25;;;21.50;99.90;;;;;;5072647;28;20482;-75
2022/06/23 06:21:57;;;;;;;21.65;12.70;;;21.40;99.90;;;;;;5072174;28;20024;-75
2022/06/23 06:24:29;;;;;;;;;;;21.30;99.90;;;;;;5073052;28;20032;-76
2022/06/23 06:26:56;;;;;;;16.77;11.00;;;21.10;99.90;;;;;;5072545;28;19908;-76
2022/06/23 06:29:32;;;;;;;20.70;11.95;;;20.80;99.90;;;;;;5072386;28;20025;-76
2022/06/23 06:32:02;;;;;;;20.83;12.80;;;20.80;99.90;;;;;;5072041;28;20033;-76
2022/06/23 06:35:12;;;;;;;16.25;12.23;;;20.90;99.90;;;;;;5071801;28;20027;-76
2022/06/23 06:37:42;;;;;;;25.38;13.15;;;20.80;99.90;;;;;;5072008;28;20036;-76
2022/06/23 06:40:09;;;;;;;16.27;10.23;;;20.80;99.90;;;;;;5072505;28;20398;-76
2022/06/23 06:42:57;;;;;;;17.45;10.48;;;20.70;99.90;;;;;;5072616;28;20078;-76
2022/06/23 06:45:29;;;;;;;18.67;9.63;;;20.70;99.90;;;;;;5072171;28;20020;-76
2022/06/23 06:47:55;;;;;;;14.95;9.77;;;20.60;99.90;;;;;;5071816;28;20032;-75
2022/06/23 06:50:33;;;;;;;16.02;10.57;;;20.70;99.90;;;;;;5067909;28;20116;-76
2022/06/23 06:53:05;;;;;;;15.57;10.25;;;20.60;99.90;;;;;;5072183;28;20463;-76
2022/06/23 06:56:11;;;;;;;18.85;10.95;;;20.90;99.90;;;;;;5071697;28;20028;-75
2022/06/23 06:58:40;;;;;;;15.15;9.93;;;20.90;99.90;;;;;;5070595;28;20040;-72
2022/06/23 07:01:20;;;;;;;19.30;10.60;;;20.90;99.90;;;;;;5070476;28;20382;-76
2022/06/23 07:03:49;;;;;;;16.23;9.18;;;20.90;99.90;;;;;;5070915;28;20032;-76
2022/06/23 07:06:35;;;;;;;21.10;10.68;;;20.80;99.90;;;;;;5071713;28;20600;-74
2022/06/23 07:09:31;;;;;;;17.40;9.70;;;20.80;99.90;;;;;;5071228;28;20089;-76
2022/06/23 07:12:27;;;;;;;15.18;8.25;;;20.90;99.90;;;;;;5067961;28;20024;-76
2022/06/23 07:15:24;;;;;;;16.48;8.95;;;21.00;99.90;;;;;;5051519;28;20037;-77
2022/06/23 07:17:58;;;;;;;13.68;8.63;;;21.10;99.90;;;;;;5055810;28;20113;-74
2022/06/23 07:20:52;;;;;;;17.20;8.20;;;21.10;99.90;;;;;;5071107;28;20048;-74
2022/06/23 07:23:26;;;;;;;13.30;8.32;;;21.10;99.90;;;;;;5070501;28;20709;-75
2022/06/23 07:25:57;;;;;;;13.10;7.95;;;21.10;99.90;;;;;;5071256;28;20112;-75
2022/06/23 07:28:31;;;;;;;15.55;8.65;;;21.00;99.90;;;;;;5071087;28;20021;-74
2022/06/23 07:31:19;;;;;;;14.90;8.90;;;21.20;99.90;;;;;;5069276;28;20498;-75
2022/06/23 07:34:01;;;;;;;13.43;6.82;;;21.20;99.90;;;;;;5063956;28;20075;-74
2022/06/23 07:36:34;;;;;;;13.48;7.38;;;21.40;99.90;;;;;;5070704;28;20037;-73
2022/06/23 07:39:27;;;;;;;10.50;7.00;;;21.40;99.90;;;;;;5070548;28;20447;-75
2022/06/23 07:42:05;;;;;;;11.10;7.13;;;21.70;99.90;;;;;;4989368;28;20125;-75
2022/06/23 07:44:41;;;;;;;10.93;7.18;;;22.10;99.90;;;;;;4989357;28;20481;-74
2022/06/23 07:47:07;;;;;;;11.82;6.68;;;22.30;99.90;;;;;;4994782;28;20094;-74
2022/06/23 07:49:33;;;;;;;13.90;6.90;;;22.30;99.90;;;;;;4989124;28;20465;-74
2022/06/23 07:52:01;;;;;;;10.10;6.63;;;22.50;99.90;;;;;;4988315;28;20077;-74
2022/06/23 07:54:28;;;;;;;12.55;6.60;;;22.30;99.90;;;;;;4989453;28;20374;-70
2022/06/23 07:56:54;;;;;;;12.23;6.88;;;22.30;99.90;;;;;;4989378;28;20030;-72
2022/06/23 07:59:27;;;;;;;10.88;6.88;;;22.00;99.90;;;;;;4988745;28;20760;-73
2022/06/23 08:02:02;;;;;;;10.82;6.70;;;22.20;99.90;;;;;;4989371;28;20033;-73
2022/06/23 08:05:03;;;;;;;13.82;7.30;;;21.90;99.90;;;;;;4989478;28;20038;-71
2022/06/23 08:07:30;;;;;;;10.90;7.32;;;21.80;99.90;;;;;;4981458;28;20034;-73
2022/06/23 08:10:01;;;;;;;14.82;8.82;;;21.60;99.90;;;;;;4988957;28;20031;-74
2022/06/23 08:12:53;;;;;;;12.32;7.75;;;21.90;99.90;;;;;;4984937;28;20056;-74
2022/06/23 08:18:49;;;;;;;;;;;22.00;99.90;;;;;;5018692;28;20045;-72
2022/06/23 08:21:29;;;;;;;11.77;6.80;;;22.20;99.90;;;;;;5068979;28;19912;-74
2022/06/23 08:24:02;;;;;;;14.48;7.57;;;22.70;99.90;;;;;;5069853;28;20021;-74
2022/06/23 08:26:29;;;;;;;9.10;6.10;;;22.50;99.90;;;;;;5068797;28;20044;-71
2022/06/23 08:28:59;;;;;;;14.38;6.68;;;21.80;99.90;;;;;;5069679;28;20017;-73
2022/06/23 08:31:27;;;;;;;15.30;6.78;;;21.90;99.90;;;;;;5069749;28;20033;-74
2022/06/23 08:33:53;;;;;;;9.65;5.45;;;21.90;99.90;;;;;;5051591;28;20021;-74
2022/06/23 08:36:26;;;;;;;9.50;5.50;;;22.00;99.90;;;;;;5073428;28;20028;-74
2022/06/23 08:39:02;;;;;;;8.80;5.18;;;22.00;99.90;;;;;;5073251;28;20475;-72
2022/06/23 08:41:54;;;;;;;9.27;5.80;;;22.20;99.90;;;;;;5073178;28;20036;-72
2022/06/23 08:44:20;;;;;;;;;;;22.10;99.90;;;;;;5060725;28;20031;-72
2022/06/23 08:46:58;;;;;;;10.07;5.00;;;22.20;99.90;;;;;;5073144;28;19912;-73
2022/06/23 08:49:39;;;;;;;8.93;5.25;;;22.10;99.90;;;;;;5072313;28;20582;-71
2022/06/23 08:52:17;;;;;;;9.60;5.15;;;22.30;99.90;;;;;;5072123;28;20040;-73
2022/06/23 08:55:06;;;;;;;10.07;6.32;;;22.80;99.90;;;;;;5072891;28;20170;-72
2022/06/23 08:57:43;;;;;;;10.35;5.38;;;23.20;99.90;;;;;;5071120;28;20375;-72
2022/06/23 09:00:12;;;;;;;9.98;5.38;;;22.80;99.90;;;;;;5072850;28;20089;-72
2022/06/23 09:02:53;;;;;;;8.70;5.97;;;23.00;99.90;;;;;;5072781;28;20024;-72
2022/06/23 09:05:25;;;;;;;10.52;6.55;;;23.30;99.90;;;;;;5072425;28;20056;-71
2022/06/23 09:07:54;;;;;;;;;;;22.90;99.90;;;;;;5073354;28;20035;-73
2022/06/23 09:10:52;;;;;;;11.45;5.95;;;23.10;99.90;;;;;;5072873;28;19999;-73
2022/06/23 09:13:28;;;;;;;12.52;6.30;;;23.50;99.90;;;;;;5072482;28;20111;-71
2022/06/23 09:16:00;;;;;;;10.98;6.55;;;23.40;99.90;;;;;;5071772;28;20108;-73
2022/06/23 09:18:34;;;;;;;13.45;6.20;;;23.70;99.90;;;;;;5072570;28;20036;-74
2022/06/23 09:21:37;;;;;;;10.77;6.00;;;23.60;99.90;;;;;;5070810;28;20021;-72
2022/06/23 09:24:06;;;;;;;10.23;5.72;;;23.40;99.90;;;;;;5072060;28;20494;-71
2022/06/23 09:26:54;;;;;;;8.85;5.28;;;23.40;99.90;;;;;;5069986;28;20107;-72
2022/06/23 09:29:41;;;;;;;9.60;4.68;;;23.60;99.90;;;;;;5068036;28;20063;-71
2022/06/23 09:32:51;;;;;;;6.45;4.47;;;23.30;99.90;;;;;;5072057;28;20039;-72
2022/06/23 09:35:31;;;;;;;10.35;4.80;;;23.10;99.90;;;;;;5008289;28;20628;-71
2022/06/23 09:38:46;;;;;;;8.80;5.25;;;23.00;99.90;;;;;;5003444;28;20038;-72
2022/06/23 09:41:30;;;;;;;9.80;5.20;;;23.10;99.90;;;;;;4970327;28;20405;-71
2022/06/23 09:44:05;;;;;;;6.80;4.72;;;23.50;99.90;;;;;;4971297;28;20043;-69
2022/06/23 09:46:33;;;;;;;10.15;5.03;;;23.60;99.90;;;;;;4970407;28;20042;-70
2022/06/23 09:49:10;;;;;;;9.82;4.93;;;23.60;99.90;;;;;;4972532;28;20038;-67
2022/06/23 09:51:52;;;;;;;7.45;4.60;;;23.70;99.90;;;;;;4969777;28;20078;-71
2022/06/23 09:54:49;;;;;;;8.15;4.22;;;23.80;99.90;;;;;;4971004;28;20039;-71
2022/06/23 09:57:36;;;;;;;7.90;5.22;;;23.80;99.90;;;;;;4970157;28;20525;-70
2022/06/23 10:00:09;;;;;;;7.72;4.82;;;24.00;99.90;;;;;;4969158;28;20182;-67
2022/06/23 10:03:00;;;;;;;7.20;4.32;;;23.90;99.90;;;;;;4942534;28;20054;-69
2022/06/23 10:05:41;;;;;;;7.53;4.32;;;24.00;99.90;;;;;;4988861;28;20092;-71
2022/06/23 10:08:27;;;;;;;8.60;4.55;;;24.00;99.90;;;;;;4990172;28;20034;-70
2022/06/23 10:11:12;;;;;;;7.70;4.68;;;23.80;99.90;;;;;;4988821;28;20034;-69
2022/06/23 10:14:19;;;;;;;7.07;4.25;;;23.90;99.90;;;;;;4989287;28;20030;-67
2022/06/23 10:17:07;;;;;;;9.18;5.28;;;24.30;99.90;;;;;;5024894;28;20036;-68
2022/06/23 10:19:39;;;;;;;9.13;4.68;;;24.60;99.90;;;;;;5049196;28;20036;-70
2022/06/23 10:22:23;;;;;;;6.53;4.22;;;24.80;99.90;;;;;;5069867;28;20031;-71
2022/06/23 10:25:19;;;;;;;7.93;4.43;;;25.40;99.90;;;;;;5070914;28;20032;-69
2022/06/23 10:28:00;;;;;;;10.05;4.75;;;25.10;99.90;;;;;;5070915;28;20058;-71
2022/06/23 10:31:03;;;;;;;10.63;5.20;;;25.10;99.90;;;;;;5070337;28;20082;-67
2022/06/23 10:33:57;;;;;;;11.05;5.65;;;25.30;99.90;;;;;;5070303;28;20039;-66
2022/06/23 10:36:54;;;;;;;13.02;5.00;;;25.20;99.90;;;;;;5070643;28;20031;-69
2022/06/23 10:39:38;;;;;;;9.70;5.60;;;25.10;99.90;;;;;;5070112;28;20036;-71
2022/06/23 10:42:12;;;;;;;10.65;5.47;;;25.20;99.90;;;;;;5071020;28;20101;-71
2022/06/23 10:44:51;;;;;;;11.80;5.65;;;25.20;99.90;;;;;;5070691;28;20498;-70
2022/06/23 10:47:41;;;;;;;9.57;5.93;;;25.20;99.90;;;;;;5069914;28;20025;-70
2022/06/23 10:50:30;;;;;;;9.55;5.35;;;25.70;99.90;;;;;;5070068;28;20620;-71
2022/06/23 10:53:01;;;;;;;7.75;5.25;;;25.60;99.90;;;;;;5057490;28;20035;-69
2022/06/23 10:55:46;;;;;;;6.97;4.20;;;26.00;99.90;;;;;;5076288;28;20033;-71
2022/06/23 10:58:40;;;;;;;7.63;5.15;;;25.90;99.90;;;;;;5077479;28;20037;-70
2022/06/23 11:01:30;;;;;;;8.35;4.65;;;25.70;99.90;;;;;;5070024;28;20107;-70
2022/06/23 11:04:08;;;;;;;8.73;4.82;;;26.20;99.90;;;;;;5070358;28;20039;-71
2022/06/23 11:06:56;;;;;;;9.02;4.20;;;26.10;99.90;;;;;;5070495;28;20067;-71
2022/06/23 11:09:56;;;;;;;7.22;4.60;;;25.50;99.90;;;;;;5070306;28;20036;-70
2022/06/23 11:12:37;;;;;;;8.88;4.10;;;25.70;99.90;;;;;;5065516;28;20039;-70
2022/06/23 11:15:14;;;;;;;7.22;4.03;;;25.50;99.90;;;;;;5056561;28;20107;-69
2022/06/23 11:18:00;;;;;;;6.57;3.58;;;25.40;99.90;;;;;;5069671;28;20024;-70
2022/06/23 11:20:57;;;;;;;9.88;4.10;;;25.60;99.90;;;;;;5068663;28;20451;-70
2022/06/23 11:23:34;;;;;;;7.45;4.22;;;25.70;99.90;;;;;;5069103;28;20051;-71
2022/06/23 11:26:25;;;;;;;9.00;4.80;;;25.60;99.90;;;;;;5069146;28;20040;-72
2022/06/23 11:29:19;;;;;;;7.75;4.35;;;25.80;99.90;;;;;;5070721;28;20032;-71
2022/06/23 11:32:27;;;;;;;6.60;4.18;;;25.80;99.90;;;;;;5066962;28;20117;-70
2022/06/23 11:35:08;;;;;;;11.32;4.70;;;25.60;99.90;;;;;;5070302;28;20054;-72
2022/06/23 11:38:30;;;;;;;10.30;4.65;;;25.10;99.90;;;;;;5070292;28;20029;-70
2022/06/23 11:41:22;;;;;;;8.82;4.57;;;25.00;99.90;;;;;;5027944;28;20127;-71
2022/06/23 11:44:00;;;;;;;9.48;4.75;;;25.00;99.90;;;;;;5027179;28;20033;-71
2022/06/23 11:46:39;;;;;;;8.75;5.20;;;25.00;99.90;;;;;;5027657;28;20104;-71
2022/06/23 11:49:21;;;;;;;7.18;4.55;;;25.10;99.90;;;;;;5027982;28;20034;-69
2022/06/23 11:52:05;;;;;;;7.28;4.63;;;25.20;99.90;;;;;;5014896;28;20491;-69
2022/06/23 11:54:40;;;;;;;8.07;4.88;;;25.20;99.90;;;;;;5028255;28;20116;-67
2022/06/23 11:57:09;;;;;;;11.05;5.50;;;25.20;99.90;;;;;;5027569;28;20501;-71
2022/06/23 11:59:49;;;;;;;11.40;4.43;;;25.10;99.90;;;;;;5028738;28;20162;-71
2022/06/23 12:02:15;;;;;;;8.88;4.90;;;25.10;99.90;;;;;;5027740;28;20040;-67
2022/06/23 12:05:05;;;;;;;9.32;4.78;;;25.30;99.90;;;;;;5027601;28;20060;-70
2022/06/23 12:07:50;;;;;;;9.88;5.38;;;25.30;99.90;;;;;;5027259;28;20030;-70
2022/06/23 12:10:21;;;;;;;8.52;5.20;;;25.40;99.90;;;;;;5030617;28;20029;-72
2022/06/23 12:12:51;;;;;;;8.70;4.78;;;25.60;99.90;;;;;;5073234;28;20416;-65
2022/06/23 12:15:21;;;;;;;7.50;4.57;;;25.60;99.90;;;;;;5074107;28;20028;-65
2022/06/23 12:17:55;;;;;;;9.02;4.70;;;25.40;99.90;;;;;;5071632;28;20028;-67
2022/06/23 12:20:31;;;;;;;8.27;4.38;;;25.20;99.90;;;;;;5072431;28;20043;-70
2022/06/23 12:23:12;;;;;;;8.07;4.88;;;25.20;99.90;;;;;;5080949;28;20020;-71
2022/06/23 12:26:04;;;;;;;9.98;4.45;;;25.50;99.90;;;;;;5061494;28;20155;-69
2022/06/23 12:28:54;;;;;;;5.43;3.65;;;25.60;99.90;;;;;;5077711;28;20028;-70
2022/06/23 12:31:44;;;;;;;6.00;4.03;;;25.80;99.90;;;;;;5075871;28;20042;-71
2022/06/23 12:34:30;;;;;;;6.20;3.55;;;26.10;99.90;;;;;;5071885;28;20026;-69
2022/06/23 12:37:22;;;;;;;5.25;3.58;;;26.20;99.50;;;;;;5060961;28;20104;-69
2022/06/23 12:40:09;;;;;;;5.45;3.42;;;26.40;99.90;;;;;;5072919;28;20522;-71
2022/06/23 12:42:42;;;;;;;6.43;2.95;;;26.20;99.90;;;;;;5072415;28;20029;-65
2022/06/23 12:45:26;;;;;;;4.25;3.00;;;26.40;99.90;;;;;;5075488;28;20486;-71
2022/06/23 12:48:26;;;;;;;6.55;3.55;;;26.10;99.90;;;;;;5063388;28;20029;-72
2022/06/23 12:51:07;;;;;;;7.38;3.20;;;26.30;99.90;;;;;;5073628;28;20397;-71
2022/06/23 12:53:51;;;;;;;7.30;3.60;;;26.30;99.90;;;;;;5053234;28;20103;-68
2022/06/23 12:56:44;;;;;;;7.00;3.83;;;26.40;99.90;;;;;;5078430;28;20081;-70
2022/06/23 12:59:24;;;;;;;7.28;3.60;;;26.30;99.10;;;;;;5072102;28;20040;-71
2022/06/23 13:01:58;;;;;;;5.00;3.13;;;26.30;99.40;;;;;;5059547;28;20026;-63
2022/06/23 13:04:35;;;;;;;10.05;3.30;;;26.20;99.90;;;;;;5070994;28;20028;-69
2022/06/23 13:07:34;;;;;;;7.53;4.40;;;26.00;99.90;;;;;;5071653;28;20462;-71
2022/06/23 13:10:26;;;;;;;6.05;3.67;;;25.90;99.90;;;;;;5028616;28;20025;-70
2022/06/23 13:13:01;;;;;;;4.38;2.78;;;26.00;99.90;;;;;;5029424;28;20045;-71
2022/06/23 13:15:53;;;;;;;5.97;3.75;;;26.30;99.90;;;;;;5029583;28;20035;-71
2022/06/23 13:18:34;;;;;;;13.13;3.88;;;26.40;99.90;;;;;;5029745;28;20025;-70
2022/06/23 13:21:12;;;;;;;8.63;3.53;;;26.40;99.40;;;;;;5028066;28;20041;-70
2022/06/23 13:23:44;;;;;;;6.57;3.63;;;26.50;99.90;;;;;;5029345;28;20030;-70
2022/06/23 13:26:18;;;;;;;5.65;3.47;;;26.60;99.90;;;;;;5029459;28;20045;-71
2022/06/23 13:28:46;;;;;;;6.25;3.63;;;26.90;98.40;;;;;;5031955;28;20033;-71
2022/06/23 13:31:33;;;;;;;6.32;3.25;;;27.00;99.10;;;;;;5029216;28;20219;-65
2022/06/23 13:34:04;;;;;;;5.43;3.47;;;27.20;96.80;;;;;;5028258;28;20531;-71
2022/06/23 13:36:50;;;;;;;7.13;3.50;;;27.30;98.90;;;;;;5026996;28;20487;-71
2022/06/23 13:39:40;;;;;;;4.75;3.17;;;27.10;98.10;;;;;;5000569;28;20060;-63
2022/06/23 13:42:13;;;;;;;4.45;3.00;;;26.90;97.40;;;;;;5028302;28;20021;-71
2022/06/23 13:45:07;;;;;;;4.47;3.17;;;27.00;98.80;;;;;;5031721;28;20018;-64
2022/06/23 13:47:45;;;;;;;5.75;3.50;;;27.30;99.90;;;;;;5069366;28;20536;-73
2022/06/23 13:50:36;;;;;;;6.45;3.33;;;27.60;99.90;;;;;;5070362;28;20028;-74
2022/06/23 13:53:23;;;;;;;5.22;3.22;;;27.40;96.40;;;;;;5028083;28;20120;-73
2022/06/23 13:56:10;;;;;;;8.05;3.15;;;27.60;98.90;;;;;;5028848;28;20033;-72
2022/06/23 13:58:42;;;;;;;6.53;2.95;;;27.40;95.40;;;;;;5028823;28;20133;-72